sensor_id;sensor_type;location;lat;lon;timestamp;temperature;humidity
17659;DHT22;8948;51.534;8.262;2023-06-10T00:03:39;20.00;57.80
17659;DHT22;8948;51.534;8.262;2023-06-10T00:08:41;19.90;57.90
17659;DHT22;8948;51.534;8.262;2023-06-10T00:13:42;19.80;58.00
17659;DHT22;8948;51.534;8.262;2023-06-10T00:18:43;19.70;58.20
17659;DHT22;8948;51.534;8.262;2023-06-10T00:23:44;19.70;58.30
17659;DHT22;8948;51.534;8.262;2023-06-10T00:28:45;19.60;58.60
17659;DHT22;8948;51.534;8.262;2023-06-10T00:33:45;19.50;58.80
17659;DHT22;8948;51.534;8.262;2023-06-10T00:38:46;19.40;59.10
17659;DHT22;8948;51.534;8.262;2023-06-10T00:43:47;19.20;59.10
17659;DHT22;8948;51.534;8.262;2023-06-10T00:48:47;19.20;59.40
17659;DHT22;8948;51.534;8.262;2023-06-10T00:53:48;19.10;59.60
17659;DHT22;8948;51.534;8.262;2023-06-10T00:58:49;19.10;59.40
17659;DHT22;8948;51.534;8.262;2023-06-10T01:03:50;19.00;59.90
17659;DHT22;8948;51.534;8.262;2023-06-10T01:09:06;18.80;59.90
17659;DHT22;8948;51.534;8.262;2023-06-10T01:14:09;18.70;60.20
17659;DHT22;8948;51.534;8.262;2023-06-10T01:19:11;18.70;60.00
17659;DHT22;8948;51.534;8.262;2023-06-10T01:24:13;18.70;60.10
17659;DHT22;8948;51.534;8.262;2023-06-10T01:29:20;18.60;60.00
17659;DHT22;8948;51.534;8.262;2023-06-10T01:34:26;18.50;60.10
17659;DHT22;8948;51.534;8.262;2023-06-10T01:39:28;18.50;60.20
17659;DHT22;8948;51.534;8.262;2023-06-10T01:44:29;18.40;60.10
17659;DHT22;8948;51.534;8.262;2023-06-10T01:49:29;18.40;59.90
17659;DHT22;8948;51.534;8.262;2023-06-10T01:54:30;18.40;59.70
17659;DHT22;8948;51.534;8.262;2023-06-10T01:59:30;18.40;59.40
17659;DHT22;8948;51.534;8.262;2023-06-10T02:04:31;18.40;59.40
17659;DHT22;8948;51.534;8.262;2023-06-10T02:09:32;18.30;59.20
17659;DHT22;8948;51.534;8.262;2023-06-10T02:14:35;18.20;59.60
17659;DHT22;8948;51.534;8.262;2023-06-10T02:19:36;18.10;59.80
17659;DHT22;8948;51.534;8.262;2023-06-10T02:24:37;18.00;60.10
17659;DHT22;8948;51.534;8.262;2023-06-10T02:29:40;17.90;60.20
17659;DHT22;8948;51.534;8.262;2023-06-10T02:34:41;17.80;60.40
17659;DHT22;8948;51.534;8.262;2023-06-10T02:39:43;17.70;60.80
17659;DHT22;8948;51.534;8.262;2023-06-10T02:44:43;17.70;60.60
17659;DHT22;8948;51.534;8.262;2023-06-10T02:49:44;17.60;60.20
17659;DHT22;8948;51.534;8.262;2023-06-10T02:54:44;17.60;60.50
17659;DHT22;8948;51.534;8.262;2023-06-10T02:59:46;17.60;60.60
17659;DHT22;8948;51.534;8.262;2023-06-10T03:04:47;17.50;60.70
17659;DHT22;8948;51.534;8.262;2023-06-10T03:09:48;17.50;60.90
17659;DHT22;8948;51.534;8.262;2023-06-10T03:14:48;17.30;61.00
17659;DHT22;8948;51.534;8.262;2023-06-10T03:19:49;17.30;61.20
17659;DHT22;8948;51.534;8.262;2023-06-10T03:24:49;17.30;61.10
17659;DHT22;8948;51.534;8.262;2023-06-10T03:29:50;17.20;60.80
17659;DHT22;8948;51.534;8.262;2023-06-10T03:34:51;17.20;60.70
17659;DHT22;8948;51.534;8.262;2023-06-10T03:39:51;17.20;60.50
17659;DHT22;8948;51.534;8.262;2023-06-10T03:44:52;17.30;63.20
17659;DHT22;8948;51.534;8.262;2023-06-10T03:49:52;17.50;62.80
17659;DHT22;8948;51.534;8.262;2023-06-10T03:54:53;17.70;61.50
17659;DHT22;8948;51.534;8.262;2023-06-10T03:59:54;17.70;62.50
17659;DHT22;8948;51.534;8.262;2023-06-10T04:04:55;17.70;60.60
17659;DHT22;8948;51.534;8.262;2023-06-10T04:09:56;17.70;60.80
17659;DHT22;8948;51.534;8.262;2023-06-10T04:14:56;17.80;62.40
17659;DHT22;8948;51.534;8.262;2023-06-10T04:19:57;17.90;61.90
17659;DHT22;8948;51.534;8.262;2023-06-10T04:24:58;17.90;61.20
17659;DHT22;8948;51.534;8.262;2023-06-10T04:29:59;18.10;61.20
17659;DHT22;8948;51.534;8.262;2023-06-10T04:35:00;18.10;59.90
17659;DHT22;8948;51.534;8.262;2023-06-10T04:40:00;17.90;60.10
17659;DHT22;8948;51.534;8.262;2023-06-10T04:45:02;17.90;60.50
17659;DHT22;8948;51.534;8.262;2023-06-10T04:50:04;17.90;61.20
17659;DHT22;8948;51.534;8.262;2023-06-10T04:55:06;18.00;61.50
17659;DHT22;8948;51.534;8.262;2023-06-10T05:00:07;18.00;61.90
17659;DHT22;8948;51.534;8.262;2023-06-10T05:05:08;18.10;61.70
17659;DHT22;8948;51.534;8.262;2023-06-10T05:10:09;18.30;61.70
17659;DHT22;8948;51.534;8.262;2023-06-10T05:15:10;18.50;61.80
17659;DHT22;8948;51.534;8.262;2023-06-10T05:20:11;18.60;60.80
17659;DHT22;8948;51.534;8.262;2023-06-10T05:25:12;18.80;61.10
17659;DHT22;8948;51.534;8.262;2023-06-10T05:30:12;18.90;60.70
17659;DHT22;8948;51.534;8.262;2023-06-10T05:35:13;19.00;61.40
17659;DHT22;8948;51.534;8.262;2023-06-10T05:40:13;19.20;60.60
17659;DHT22;8948;51.534;8.262;2023-06-10T05:45:14;19.30;59.40
17659;DHT22;8948;51.534;8.262;2023-06-10T05:50:15;19.50;59.90
17659;DHT22;8948;51.534;8.262;2023-06-10T05:55:15;19.70;58.60
17659;DHT22;8948;51.534;8.262;2023-06-10T06:00:16;19.70;58.40
17659;DHT22;8948;51.534;8.262;2023-06-10T06:05:17;19.90;57.70
17659;DHT22;8948;51.534;8.262;2023-06-10T06:10:18;20.10;57.50
17659;DHT22;8948;51.534;8.262;2023-06-10T06:15:18;20.30;57.30
17659;DHT22;8948;51.534;8.262;2023-06-10T06:20:20;20.50;58.50
17659;DHT22;8948;51.534;8.262;2023-06-10T06:25:20;20.70;57.90
17659;DHT22;8948;51.534;8.262;2023-06-10T06:30:21;20.80;57.70
17659;DHT22;8948;51.534;8.262;2023-06-10T06:35:21;21.00;57.50
17659;DHT22;8948;51.534;8.262;2023-06-10T06:40:22;21.20;56.30
17659;DHT22;8948;51.534;8.262;2023-06-10T06:45:22;21.30;55.70
17659;DHT22;8948;51.534;8.262;2023-06-10T06:50:23;21.50;56.00
17659;DHT22;8948;51.534;8.262;2023-06-10T06:55:24;21.70;56.20
17659;DHT22;8948;51.534;8.262;2023-06-10T07:00:24;21.90;55.70
17659;DHT22;8948;51.534;8.262;2023-06-10T07:05:25;22.20;55.90
17659;DHT22;8948;51.534;8.262;2023-06-10T07:10:28;22.40;54.90
17659;DHT22;8948;51.534;8.262;2023-06-10T07:15:29;22.60;55.60
17659;DHT22;8948;51.534;8.262;2023-06-10T07:20:29;22.80;55.20
17659;DHT22;8948;51.534;8.262;2023-06-10T07:25:30;23.00;53.20
17659;DHT22;8948;51.534;8.262;2023-06-10T07:30:30;23.20;53.90
17659;DHT22;8948;51.534;8.262;2023-06-10T07:35:31;23.40;53.10
17659;DHT22;8948;51.534;8.262;2023-06-10T07:40:31;23.60;53.40
17659;DHT22;8948;51.534;8.262;2023-06-10T07:45:32;23.70;53.90
17659;DHT22;8948;51.534;8.262;2023-06-10T07:50:33;24.00;52.70
17659;DHT22;8948;51.534;8.262;2023-06-10T07:55:33;24.20;51.40
17659;DHT22;8948;51.534;8.262;2023-06-10T08:00:34;24.30;52.50
17659;DHT22;8948;51.534;8.262;2023-06-10T08:05:34;24.40;53.20
17659;DHT22;8948;51.534;8.262;2023-06-10T08:10:35;24.60;52.80
17659;DHT22;8948;51.534;8.262;2023-06-10T08:15:36;24.90;51.20
17659;DHT22;8948;51.534;8.262;2023-06-10T08:20:36;25.20;52.90
17659;DHT22;8948;51.534;8.262;2023-06-10T08:25:37;25.40;51.60
17659;DHT22;8948;51.534;8.262;2023-06-10T08:30:37;25.40;51.90
17659;DHT22;8948;51.534;8.262;2023-06-10T08:35:38;25.50;50.40
17659;DHT22;8948;51.534;8.262;2023-06-10T08:40:38;25.70;50.40
17659;DHT22;8948;51.534;8.262;2023-06-10T08:45:42;25.80;50.70
17659;DHT22;8948;51.534;8.262;2023-06-10T08:50:43;26.00;50.20
17659;DHT22;8948;51.534;8.262;2023-06-10T08:55:49;26.30;49.70
17659;DHT22;8948;51.534;8.262;2023-06-10T09:00:52;26.50;50.20
17659;DHT22;8948;51.534;8.262;2023-06-10T09:05:52;26.70;48.30
17659;DHT22;8948;51.534;8.262;2023-06-10T09:10:53;27.10;48.40
17659;DHT22;8948;51.534;8.262;2023-06-10T09:15:54;27.30;47.00
17659;DHT22;8948;51.534;8.262;2023-06-10T09:20:56;27.30;48.80
17659;DHT22;8948;51.534;8.262;2023-06-10T09:25:57;27.50;47.80
17659;DHT22;8948;51.534;8.262;2023-06-10T09:31:03;27.60;46.90
17659;DHT22;8948;51.534;8.262;2023-06-10T09:36:05;27.80;48.30
17659;DHT22;8948;51.534;8.262;2023-06-10T09:41:06;28.10;47.40
17659;DHT22;8948;51.534;8.262;2023-06-10T09:46:13;28.20;45.20
17659;DHT22;8948;51.534;8.262;2023-06-10T09:51:15;28.40;45.40
17659;DHT22;8948;51.534;8.262;2023-06-10T09:56:17;28.50;46.20
17659;DHT22;8948;51.534;8.262;2023-06-10T10:01:18;28.70;44.20
17659;DHT22;8948;51.534;8.262;2023-06-10T10:06:20;28.70;43.90
17659;DHT22;8948;51.534;8.262;2023-06-10T10:11:22;28.90;45.70
17659;DHT22;8948;51.534;8.262;2023-06-10T10:16:31;29.20;43.90
17659;DHT22;8948;51.534;8.262;2023-06-10T10:21:37;29.30;44.20
17659;DHT22;8948;51.534;8.262;2023-06-10T10:26:39;29.50;42.50
17659;DHT22;8948;51.534;8.262;2023-06-10T10:31:42;29.60;44.10
17659;DHT22;8948;51.534;8.262;2023-06-10T10:36:46;29.50;40.70
17659;DHT22;8948;51.534;8.262;2023-06-10T10:41:49;29.60;41.60
17659;DHT22;8948;51.534;8.262;2023-06-10T10:46:51;29.70;42.70
17659;DHT22;8948;51.534;8.262;2023-06-10T10:51:59;30.00;44.10
17659;DHT22;8948;51.534;8.262;2023-06-10T11:02:32;30.50;38.80
17659;DHT22;8948;51.534;8.262;2023-06-10T11:07:34;30.60;40.60
17659;DHT22;8948;51.534;8.262;2023-06-10T11:18:20;30.90;40.50
17659;DHT22;8948;51.534;8.262;2023-06-10T11:28:33;31.10;40.70
17659;DHT22;8948;51.534;8.262;2023-06-10T11:33:33;31.10;40.30
17659;DHT22;8948;51.534;8.262;2023-06-10T11:38:39;31.20;39.10
17659;DHT22;8948;51.534;8.262;2023-06-10T11:43:44;31.30;39.70
17659;DHT22;8948;51.534;8.262;2023-06-10T11:48:52;30.90;40.00
17659;DHT22;8948;51.534;8.262;2023-06-10T11:53:53;30.80;38.90
17659;DHT22;8948;51.534;8.262;2023-06-10T11:59:07;31.00;39.90
17659;DHT22;8948;51.534;8.262;2023-06-10T12:04:15;31.00;39.20
17659;DHT22;8948;51.534;8.262;2023-06-10T12:09:25;30.80;39.20
17659;DHT22;8948;51.534;8.262;2023-06-10T12:14:54;30.80;39.90
17659;DHT22;8948;51.534;8.262;2023-06-10T12:19:55;31.40;41.10
17659;DHT22;8948;51.534;8.262;2023-06-10T12:25:00;31.40;38.20
17659;DHT22;8948;51.534;8.262;2023-06-10T12:30:03;31.80;36.70
17659;DHT22;8948;51.534;8.262;2023-06-10T12:35:05;32.00;35.50
17659;DHT22;8948;51.534;8.262;2023-06-10T12:40:07;32.10;37.40
17659;DHT22;8948;51.534;8.262;2023-06-10T12:45:09;32.20;37.70
17659;DHT22;8948;51.534;8.262;2023-06-10T12:50:10;32.40;36.40
17659;DHT22;8948;51.534;8.262;2023-06-10T12:55:12;32.80;37.50
17659;DHT22;8948;51.534;8.262;2023-06-10T13:00:13;32.90;36.70
17659;DHT22;8948;51.534;8.262;2023-06-10T13:05:14;33.00;36.90
17659;DHT22;8948;51.534;8.262;2023-06-10T13:10:16;33.00;35.70
17659;DHT22;8948;51.534;8.262;2023-06-10T13:15:17;33.00;34.80
17659;DHT22;8948;51.534;8.262;2023-06-10T13:20:18;33.00;35.80
17659;DHT22;8948;51.534;8.262;2023-06-10T13:25:19;33.10;36.20
17659;DHT22;8948;51.534;8.262;2023-06-10T13:30:20;33.10;37.50
17659;DHT22;8948;51.534;8.262;2023-06-10T13:35:21;33.20;34.60
17659;DHT22;8948;51.534;8.262;2023-06-10T13:40:21;33.10;36.40
17659;DHT22;8948;51.534;8.262;2023-06-10T13:45:22;33.10;36.00
17659;DHT22;8948;51.534;8.262;2023-06-10T13:50:23;33.20;35.80
17659;DHT22;8948;51.534;8.262;2023-06-10T13:55:23;33.40;35.70
17659;DHT22;8948;51.534;8.262;2023-06-10T14:00:25;33.10;35.80
17659;DHT22;8948;51.534;8.262;2023-06-10T14:05:27;33.20;35.80
17659;DHT22;8948;51.534;8.262;2023-06-10T14:10:28;33.30;37.80
17659;DHT22;8948;51.534;8.262;2023-06-10T14:15:28;33.30;35.00
17659;DHT22;8948;51.534;8.262;2023-06-10T14:20:29;33.00;35.70
17659;DHT22;8948;51.534;8.262;2023-06-10T14:25:31;33.20;34.40
17659;DHT22;8948;51.534;8.262;2023-06-10T14:30:32;33.40;37.80
17659;DHT22;8948;51.534;8.262;2023-06-10T14:35:32;33.30;35.70
17659;DHT22;8948;51.534;8.262;2023-06-10T14:40:33;33.50;34.90
17659;DHT22;8948;51.534;8.262;2023-06-10T14:45:33;33.40;34.40
17659;DHT22;8948;51.534;8.262;2023-06-10T14:50:38;33.40;35.80
17659;DHT22;8948;51.534;8.262;2023-06-10T14:55:39;33.30;34.30
17659;DHT22;8948;51.534;8.262;2023-06-10T15:00:39;33.40;36.50
17659;DHT22;8948;51.534;8.262;2023-06-10T15:05:40;33.70;34.70
17659;DHT22;8948;51.534;8.262;2023-06-10T15:10:41;33.60;34.80
17659;DHT22;8948;51.534;8.262;2023-06-10T15:15:43;33.40;36.20
17659;DHT22;8948;51.534;8.262;2023-06-10T15:20:46;33.40;34.90
17659;DHT22;8948;51.534;8.262;2023-06-10T15:26:27;33.70;34.00
17659;DHT22;8948;51.534;8.262;2023-06-10T15:32:11;33.50;34.90
17659;DHT22;8948;51.534;8.262;2023-06-10T15:37:15;33.40;34.00
17659;DHT22;8948;51.534;8.262;2023-06-10T15:42:16;33.40;34.70
17659;DHT22;8948;51.534;8.262;2023-06-10T15:47:16;33.20;33.40
17659;DHT22;8948;51.534;8.262;2023-06-10T15:52:17;33.10;33.30
17659;DHT22;8948;51.534;8.262;2023-06-10T15:57:17;32.60;35.70
17659;DHT22;8948;51.534;8.262;2023-06-10T16:02:19;32.70;35.90
17659;DHT22;8948;51.534;8.262;2023-06-10T16:07:20;32.80;36.40
17659;DHT22;8948;51.534;8.262;2023-06-10T16:12:20;32.70;36.60
17659;DHT22;8948;51.534;8.262;2023-06-10T16:17:21;32.90;35.90
17659;DHT22;8948;51.534;8.262;2023-06-10T16:22:22;32.70;36.80
17659;DHT22;8948;51.534;8.262;2023-06-10T16:27:22;31.90;37.50
17659;DHT22;8948;51.534;8.262;2023-06-10T16:32:24;30.80;39.30
17659;DHT22;8948;51.534;8.262;2023-06-10T16:37:25;29.90;40.80
17659;DHT22;8948;51.534;8.262;2023-06-10T16:42:26;29.50;42.00
17659;DHT22;8948;51.534;8.262;2023-06-10T16:47:26;29.30;42.40
17659;DHT22;8948;51.534;8.262;2023-06-10T16:52:27;29.20;42.30
17659;DHT22;8948;51.534;8.262;2023-06-10T16:57:27;29.30;42.30
17659;DHT22;8948;51.534;8.262;2023-06-10T17:02:28;29.60;42.40
17659;DHT22;8948;51.534;8.262;2023-06-10T17:07:29;29.70;41.60
17659;DHT22;8948;51.534;8.262;2023-06-10T17:12:30;29.60;41.20
17659;DHT22;8948;51.534;8.262;2023-06-10T17:17:31;29.60;41.10
17659;DHT22;8948;51.534;8.262;2023-06-10T17:22:31;29.40;41.10
17659;DHT22;8948;51.534;8.262;2023-06-10T17:27:32;29.20;42.50
17659;DHT22;8948;51.534;8.262;2023-06-10T17:32:32;29.10;42.10
17659;DHT22;8948;51.534;8.262;2023-06-10T17:37:33;28.90;42.00
17659;DHT22;8948;51.534;8.262;2023-06-10T17:42:34;29.10;41.70
17659;DHT22;8948;51.534;8.262;2023-06-10T17:47:35;29.00;41.90
17659;DHT22;8948;51.534;8.262;2023-06-10T17:52:35;28.80;42.70
17659;DHT22;8948;51.534;8.262;2023-06-10T17:57:36;28.40;42.60
17659;DHT22;8948;51.534;8.262;2023-06-10T18:02:36;28.40;42.80
17659;DHT22;8948;51.534;8.262;2023-06-10T18:07:39;28.30;43.10
17659;DHT22;8948;51.534;8.262;2023-06-10T18:12:40;28.40;43.10
17659;DHT22;8948;51.534;8.262;2023-06-10T18:17:40;28.30;43.30
17659;DHT22;8948;51.534;8.262;2023-06-10T18:22:41;28.30;43.60
17659;DHT22;8948;51.534;8.262;2023-06-10T18:27:41;28.40;43.20
17659;DHT22;8948;51.534;8.262;2023-06-10T18:32:42;28.40;42.70
17659;DHT22;8948;51.534;8.262;2023-06-10T18:37:42;28.40;42.80
17659;DHT22;8948;51.534;8.262;2023-06-10T18:42:43;28.30;42.80
17659;DHT22;8948;51.534;8.262;2023-06-10T18:47:44;28.30;42.80
17659;DHT22;8948;51.534;8.262;2023-06-10T18:52:44;28.20;42.90
17659;DHT22;8948;51.534;8.262;2023-06-10T18:57:45;28.00;43.00
17659;DHT22;8948;51.534;8.262;2023-06-10T19:02:46;27.80;43.10
17659;DHT22;8948;51.534;8.262;2023-06-10T19:07:46;27.70;44.00
17659;DHT22;8948;51.534;8.262;2023-06-10T19:12:47;27.60;44.60
17659;DHT22;8948;51.534;8.262;2023-06-10T19:17:47;27.20;44.80
17659;DHT22;8948;51.534;8.262;2023-06-10T19:22:48;26.80;44.90
17659;DHT22;8948;51.534;8.262;2023-06-10T19:27:48;26.70;44.90
17659;DHT22;8948;51.534;8.262;2023-06-10T19:32:49;26.40;45.80
17659;DHT22;8948;51.534;8.262;2023-06-10T19:37:49;26.10;45.80
17659;DHT22;8948;51.534;8.262;2023-06-10T19:42:50;25.90;46.00
17659;DHT22;8948;51.534;8.262;2023-06-10T19:47:51;25.80;46.30
17659;DHT22;8948;51.534;8.262;2023-06-10T19:52:51;25.70;46.10
17659;DHT22;8948;51.534;8.262;2023-06-10T19:57:52;25.60;46.20
17659;DHT22;8948;51.534;8.262;2023-06-10T20:02:55;25.40;46.00
17659;DHT22;8948;51.534;8.262;2023-06-10T20:07:57;25.40;46.10
17659;DHT22;8948;51.534;8.262;2023-06-10T20:12:57;25.30;46.50
17659;DHT22;8948;51.534;8.262;2023-06-10T20:17:58;25.20;46.70
17659;DHT22;8948;51.534;8.262;2023-06-10T20:22:58;25.10;46.60
17659;DHT22;8948;51.534;8.262;2023-06-10T20:28:00;25.00;46.80
17659;DHT22;8948;51.534;8.262;2023-06-10T20:33:00;24.80;46.90
17659;DHT22;8948;51.534;8.262;2023-06-10T20:38:01;24.80;46.80
17659;DHT22;8948;51.534;8.262;2023-06-10T20:43:01;24.70;46.80
17659;DHT22;8948;51.534;8.262;2023-06-10T20:48:02;24.70;47.10
17659;DHT22;8948;51.534;8.262;2023-06-10T20:53:02;24.60;47.40
17659;DHT22;8948;51.534;8.262;2023-06-10T20:58:03;24.30;47.70
17659;DHT22;8948;51.534;8.262;2023-06-10T21:03:04;24.20;48.10
17659;DHT22;8948;51.534;8.262;2023-06-10T21:08:04;24.00;48.60
17659;DHT22;8948;51.534;8.262;2023-06-10T21:13:05;24.00;48.50
17659;DHT22;8948;51.534;8.262;2023-06-10T21:18:05;23.90;48.50
17659;DHT22;8948;51.534;8.262;2023-06-10T21:23:07;23.70;48.90
17659;DHT22;8948;51.534;8.262;2023-06-10T21:28:07;23.60;49.40
17659;DHT22;8948;51.534;8.262;2023-06-10T21:33:08;23.60;49.40
17659;DHT22;8948;51.534;8.262;2023-06-10T21:38:08;23.50;49.70
17659;DHT22;8948;51.534;8.262;2023-06-10T21:43:09;23.30;49.90
17659;DHT22;8948;51.534;8.262;2023-06-10T21:48:09;23.20;49.90
17659;DHT22;8948;51.534;8.262;2023-06-10T21:53:11;23.00;50.20
17659;DHT22;8948;51.534;8.262;2023-06-10T21:58:11;22.90;50.30
17659;DHT22;8948;51.534;8.262;2023-06-10T22:03:12;22.90;50.50
17659;DHT22;8948;51.534;8.262;2023-06-10T22:08:12;22.70;50.70
17659;DHT22;8948;51.534;8.262;2023-06-10T22:13:13;22.70;50.90
17659;DHT22;8948;51.534;8.262;2023-06-10T22:18:14;22.60;51.00
17659;DHT22;8948;51.534;8.262;2023-06-10T22:23:19;22.60;51.10
17659;DHT22;8948;51.534;8.262;2023-06-10T22:28:20;22.50;51.20
17659;DHT22;8948;51.534;8.262;2023-06-10T22:33:21;22.40;51.50
17659;DHT22;8948;51.534;8.262;2023-06-10T22:38:21;22.30;51.60
17659;DHT22;8948;51.534;8.262;2023-06-10T22:43:22;22.20;51.70
17659;DHT22;8948;51.534;8.262;2023-06-10T22:48:22;22.10;51.80
17659;DHT22;8948;51.534;8.262;2023-06-10T22:53:23;22.00;52.20
17659;DHT22;8948;51.534;8.262;2023-06-10T22:58:23;22.00;52.30
17659;DHT22;8948;51.534;8.262;2023-06-10T23:03:24;21.90;52.40
17659;DHT22;8948;51.534;8.262;2023-06-10T23:08:25;21.90;52.40
17659;DHT22;8948;51.534;8.262;2023-06-10T23:13:26;21.70;52.90
17659;DHT22;8948;51.534;8.262;2023-06-10T23:18:26;21.60;53.30
17659;DHT22;8948;51.534;8.262;2023-06-10T23:23:27;21.50;53.40
17659;DHT22;8948;51.534;8.262;2023-06-10T23:28:37;21.50;53.40
17659;DHT22;8948;51.534;8.262;2023-06-10T23:33:37;21.50;53.60
17659;DHT22;8948;51.534;8.262;2023-06-10T23:38:39;21.40;53.50
17659;DHT22;8948;51.534;8.262;2023-06-10T23:43:39;21.30;53.50
17659;DHT22;8948;51.534;8.262;2023-06-10T23:48:40;21.30;53.40
17659;DHT22;8948;51.534;8.262;2023-06-10T23:53:41;21.30;53.60
17659;DHT22;8948;51.534;8.262;2023-06-10T23:58:41;21.20;53.50
